Time;durP1;ratioP1;P1;durP2;ratioP2;P2;SDS_P1;SDS_P2;PMS_P1;PMS_P2;Temp;Humidity;BMP_temperature;BMP_pressure;BME280_temperature;BME280_humidity;BME280_pressure;Samples;Min_cycle;Max_cycle;Signal;HPM_P1;HPM_P2
2022/02/18 00:00:12;;;;;;;9.47;4.83;;;;;;;;;;2048263;28;20190;-64
2022/02/18 00:01:17;;;;;;;13.27;5.27;;;;;;;;;;2055767;28;20182;-63
2022/02/18 00:02:17;;;;;;;10.77;4.93;;;;;;;;;;2055312;28;20182;-63
2022/02/18 00:03:17;;;;;;;8.50;4.32;;;;;;;;;;2049361;28;20203;-65
2022/02/18 00:04:17;;;;;;;9.17;4.93;;;;;;;;;;2048668;28;20198;-64
2022/02/18 00:05:18;;;;;;;11.80;4.78;;;;;;;;;;2048270;29;20185;-63
2022/02/18 00:06:19;;;;;;;10.40;4.15;;;;;;;;;;2048383;28;20221;-63
2022/02/18 00:07:19;;;;;;;10.27;4.30;;;;;;;;;;2049275;28;20210;-64
2022/02/18 00:08:20;;;;;;;9.10;3.90;;;;;;;;;;2052820;28;20166;-64
2022/02/18 00:09:20;;;;;;;8.27;3.87;;;;;;;;;;2050496;28;20569;-65
2022/02/18 00:10:21;;;;;;;11.73;4.40;;;;;;;;;;2053824;28;20193;-66
2022/02/18 00:11:21;;;;;;;8.50;3.80;;;;;;;;;;2054422;28;20195;-63
2022/02/18 00:12:21;;;;;;;8.75;4.25;;;;;;;;;;2056420;28;20202;-65
2022/02/18 00:13:27;;;;;;;7.68;3.83;;;;;;;;;;2058181;28;20583;-63
2022/02/18 00:14:27;;;;;;;6.07;3.80;;;;;;;;;;2058124;28;20180;-63
2022/02/18 00:15:28;;;;;;;7.23;3.97;;;;;;;;;;2058125;28;20178;-63
2022/02/18 00:16:28;;;;;;;9.63;3.83;;;;;;;;;;2054809;28;20202;-64
2022/02/18 00:17:28;;;;;;;7.57;3.80;;;;;;;;;;2064514;28;20186;-64
2022/02/18 00:18:28;;;;;;;11.70;3.80;;;;;;;;;;2056441;28;21354;-65
2022/02/18 00:19:29;;;;;;;9.27;3.83;;;;;;;;;;2057954;28;20684;-61
2022/02/18 00:20:30;;;;;;;11.93;4.10;;;;;;;;;;2056711;28;20550;-63
2022/02/18 00:21:30;;;;;;;9.18;3.58;;;;;;;;;;2050586;28;20206;-64
2022/02/18 00:22:31;;;;;;;6.47;3.43;;;;;;;;;;2050227;29;20183;-63
2022/02/18 00:23:31;;;;;;;7.35;4.57;;;;;;;;;;2050270;28;20198;-64
2022/02/18 00:24:31;;;;;;;13.63;4.37;;;;;;;;;;2050605;29;20182;-65
2022/02/18 00:25:32;;;;;;;9.50;3.97;;;;;;;;;;2051101;28;20666;-64
2022/02/18 00:26:33;;;;;;;10.10;3.97;;;;;;;;;;2051824;28;20290;-64
2022/02/18 00:27:33;;;;;;;9.87;4.00;;;;;;;;;;2058585;28;20205;-63
2022/02/18 00:28:33;;;;;;;8.63;3.70;;;;;;;;;;2057532;28;20196;-63
2022/02/18 00:29:36;;;;;;;10.10;4.25;;;;;;;;;;2046046;29;20204;-64
2022/02/18 00:30:37;;;;;;;9.43;3.73;;;;;;;;;;2051150;28;20245;-65
2022/02/18 00:31:37;;;;;;;10.33;3.83;;;;;;;;;;2042023;29;20190;-65
2022/02/18 00:32:40;;;;;;;13.13;4.27;;;;;;;;;;2049910;28;20275;-65
2022/02/18 00:33:40;;;;;;;8.35;3.90;;;;;;;;;;2041783;29;20195;-61
2022/02/18 00:34:40;;;;;;;7.93;4.87;;;;;;;;;;2042444;29;20261;-64
2022/02/18 00:35:41;;;;;;;6.93;3.70;;;;;;;;;;2057560;28;20519;-65
2022/02/18 00:36:41;;;;;;;10.33;4.40;;;;;;;;;;2065012;28;20205;-64
2022/02/18 00:37:43;;;;;;;11.30;4.33;;;;;;;;;;2058725;28;20177;-64
2022/02/18 00:38:43;;;;;;;9.33;4.03;;;;;;;;;;2056588;28;20639;-64
2022/02/18 00:39:43;;;;;;;10.60;4.30;;;;;;;;;;2041731;29;20683;-65
2022/02/18 00:40:45;;;;;;;8.77;4.10;;;;;;;;;;2050867;28;20261;-65
2022/02/18 00:41:45;;;;;;;12.03;4.47;;;;;;;;;;2049788;28;20203;-64
2022/02/18 00:42:45;;;;;;;11.87;4.40;;;;;;;;;;2048972;29;20174;-65
2022/02/18 00:43:47;;;;;;;10.00;3.73;;;;;;;;;;2043221;29;20631;-64
2022/02/18 00:44:47;;;;;;;9.57;4.53;;;;;;;;;;2049386;28;20175;-64
2022/02/18 00:45:48;;;;;;;11.17;4.40;;;;;;;;;;2065350;28;20170;-64
2022/02/18 00:46:50;;;;;;;14.97;4.13;;;;;;;;;;2057260;28;20344;-64
2022/02/18 00:47:51;;;;;;;9.70;3.63;;;;;;;;;;2049669;28;20167;-63
2022/02/18 00:48:51;;;;;;;9.83;4.47;;;;;;;;;;2049338;29;20715;-62
2022/02/18 00:49:52;;;;;;;7.85;3.80;;;;;;;;;;2049563;29;20624;-64
2022/02/18 00:50:52;;;;;;;11.85;4.47;;;;;;;;;;2047733;29;20167;-64
2022/02/18 00:51:53;;;;;;;8.60;4.27;;;;;;;;;;2043523;29;20180;-63
2022/02/18 00:52:54;;;;;;;8.87;4.13;;;;;;;;;;2041640;29;20199;-64
2022/02/18 00:53:56;;;;;;;12.30;3.87;;;;;;;;;;2051723;28;20238;-64
2022/02/18 00:54:56;;;;;;;11.50;4.37;;;;;;;;;;2057705;28;20543;-64
2022/02/18 00:55:57;;;;;;;8.50;3.93;;;;;;;;;;2058372;28;20167;-64
2022/02/18 00:56:57;;;;;;;11.93;4.50;;;;;;;;;;2057399;28;20573;-64
2022/02/18 00:57:57;;;;;;;10.10;3.90;;;;;;;;;;2042763;28;20180;-64
2022/02/18 00:59:00;;;;;;;10.87;3.43;;;;;;;;;;2056054;28;20214;-64
2022/02/18 01:00:00;;;;;;;7.27;4.20;;;;;;;;;;2042601;29;20191;-64
2022/02/18 01:01:02;;;;;;;10.70;4.07;;;;;;;;;;2055842;28;20186;-63
2022/02/18 01:02:02;;;;;;;8.53;3.80;;;;;;;;;;2057716;28;20178;-64
2022/02/18 01:03:04;;;;;;;9.57;4.13;;;;;;;;;;2057371;28;20635;-63
2022/02/18 01:04:04;;;;;;;13.10;5.17;;;;;;;;;;2055705;28;20332;-64
2022/02/18 01:05:04;;;;;;;10.23;3.70;;;;;;;;;;2049855;28;20175;-63
2022/02/18 01:06:05;;;;;;;9.40;3.70;;;;;;;;;;2050276;28;20626;-64
2022/02/18 01:07:06;;;;;;;13.57;4.60;;;;;;;;;;2050252;28;20203;-63
2022/02/18 01:08:08;;;;;;;9.43;4.23;;;;;;;;;;2050210;28;20171;-64
2022/02/18 01:09:10;;;;;;;13.73;4.47;;;;;;;;;;2050446;28;20234;-65
2022/02/18 01:10:11;;;;;;;10.57;4.47;;;;;;;;;;2050647;28;20191;-63
2022/02/18 01:11:13;;;;;;;11.23;4.33;;;;;;;;;;2050893;28;20175;-64
2022/02/18 01:12:13;;;;;;;12.07;4.60;;;;;;;;;;2034249;29;20227;-64
2022/02/18 01:13:15;;;;;;;11.33;4.47;;;;;;;;;;2046054;28;20173;-64
2022/02/18 01:14:15;;;;;;;12.67;4.70;;;;;;;;;;2049019;29;20186;-66
2022/02/18 01:15:16;;;;;;;8.80;4.10;;;;;;;;;;2049557;29;20175;-65
2022/02/18 01:16:17;;;;;;;9.17;4.30;;;;;;;;;;2050347;28;20549;-64
2022/02/18 01:17:18;;;;;;;12.23;4.20;;;;;;;;;;2049672;29;20179;-64
2022/02/18 01:18:20;;;;;;;15.13;4.97;;;;;;;;;;2053020;28;20170;-64
2022/02/18 01:19:21;;;;;;;14.17;4.47;;;;;;;;;;2055667;28;20188;-64
2022/02/18 01:20:22;;;;;;;7.47;3.87;;;;;;;;;;2041977;28;20194;-62
2022/02/18 01:21:22;;;;;;;12.63;4.30;;;;;;;;;;2036841;29;20193;-64
2022/02/18 01:22:23;;;;;;;9.87;4.23;;;;;;;;;;2048837;28;20217;-64
2022/02/18 01:23:23;;;;;;;12.10;4.70;;;;;;;;;;2056918;28;20182;-63
2022/02/18 01:24:23;;;;;;;11.63;4.50;;;;;;;;;;2056211;28;20242;-64
2022/02/18 01:25:24;;;;;;;13.63;4.57;;;;;;;;;;2057685;28;20261;-63
2022/02/18 01:26:24;;;;;;;15.17;5.13;;;;;;;;;;2056439;28;20206;-63
2022/02/18 01:27:24;;;;;;;11.73;4.53;;;;;;;;;;2041272;29;20184;-64
2022/02/18 01:28:24;;;;;;;12.90;4.77;;;;;;;;;;2049202;29;20206;-63
2022/02/18 01:29:25;;;;;;;13.83;3.97;;;;;;;;;;2049363;28;20266;-65
2022/02/18 01:30:26;;;;;;;10.17;4.47;;;;;;;;;;2041169;29;20172;-62
2022/02/18 01:31:26;;;;;;;11.93;4.80;;;;;;;;;;2049171;29;20182;-64
2022/02/18 01:32:27;;;;;;;17.17;5.33;;;;;;;;;;2049157;28;20226;-63
2022/02/18 01:33:27;;;;;;;15.50;4.80;;;;;;;;;;2049179;29;20746;-64
2022/02/18 01:34:27;;;;;;;12.93;5.20;;;;;;;;;;2048730;29;20168;-63
2022/02/18 01:35:28;;;;;;;10.93;4.63;;;;;;;;;;2049372;28;20217;-63
2022/02/18 01:36:28;;;;;;;12.87;4.17;;;;;;;;;;2041141;29;20218;-64
2022/02/18 01:37:29;;;;;;;13.33;4.77;;;;;;;;;;2049265;29;20178;-63
2022/02/18 01:38:29;;;;;;;10.83;4.67;;;;;;;;;;2049570;28;20254;-64
2022/02/18 01:39:34;;;;;;;11.13;4.53;;;;;;;;;;2049142;28;20667;-63
2022/02/18 01:40:34;;;;;;;13.80;4.80;;;;;;;;;;2044514;29;20187;-64
2022/02/18 01:41:35;;;;;;;13.17;4.97;;;;;;;;;;2057141;28;20217;-63
2022/02/18 01:42:35;;;;;;;11.87;4.77;;;;;;;;;;2055510;28;20179;-62
2022/02/18 01:43:37;;;;;;;10.33;4.03;;;;;;;;;;2049141;29;20179;-63
2022/02/18 01:44:42;;;;;;;11.90;4.22;;;;;;;;;;2053066;28;20175;-63
2022/02/18 01:45:48;;;;;;;16.98;5.25;;;;;;;;;;2053909;28;20220;-64
2022/02/18 01:46:48;;;;;;;11.20;5.40;;;;;;;;;;2051290;28;20245;-64
2022/02/18 01:47:49;;;;;;;10.10;4.63;;;;;;;;;;2053986;28;20183;-64
2022/02/18 01:48:50;;;;;;;12.10;5.07;;;;;;;;;;2063073;28;20174;-64
2022/02/18 01:49:53;;;;;;;11.73;4.33;;;;;;;;;;2057822;28;20173;-64
2022/02/18 01:50:53;;;;;;;13.70;5.20;;;;;;;;;;2064950;28;20674;-64
2022/02/18 01:51:55;;;;;;;13.90;4.90;;;;;;;;;;2065171;28;20174;-63
2022/02/18 01:52:56;;;;;;;11.60;5.23;;;;;;;;;;2056907;28;20320;-63
2022/02/18 01:53:58;;;;;;;11.63;5.03;;;;;;;;;;2057554;28;20178;-64
2022/02/18 01:54:58;;;;;;;9.80;4.50;;;;;;;;;;2059735;28;20310;-64
2022/02/18 01:55:58;;;;;;;14.52;4.82;;;;;;;;;;2054589;28;20187;-64
2022/02/18 01:56:59;;;;;;;14.17;5.27;;;;;;;;;;2048810;28;20782;-64
2022/02/18 01:58:01;;;;;;;14.43;5.20;;;;;;;;;;2041775;29;20175;-64
2022/02/18 01:59:02;;;;;;;15.23;5.40;;;;;;;;;;2048812;29;20187;-60
2022/02/18 02:00:02;;;;;;;13.23;4.78;;;;;;;;;;2050302;28;20170;-64
2022/02/18 02:01:14;;;;;;;11.00;4.20;;;;;;;;;;2056767;28;20794;-62
2022/02/18 02:02:15;;;;;;;17.10;5.00;;;;;;;;;;2053946;28;20217;-64
2022/02/18 02:03:15;;;;;;;14.68;4.80;;;;;;;;;;2044286;29;20625;-62
2022/02/18 02:04:16;;;;;;;13.13;4.43;;;;;;;;;;2056092;28;20620;-64
2022/02/18 02:05:17;;;;;;;10.07;4.25;;;;;;;;;;2055515;28;20175;-63
2022/02/18 02:06:17;;;;;;;12.77;5.23;;;;;;;;;;2059678;28;20177;-63
2022/02/18 02:07:18;;;;;;;13.53;5.47;;;;;;;;;;2052768;28;20197;-65
2022/02/18 02:08:21;;;;;;;13.63;5.40;;;;;;;;;;2048014;28;20167;-65
2022/02/18 02:09:25;;;;;;;14.47;4.87;;;;;;;;;;2055983;28;20311;-64
2022/02/18 02:10:26;;;;;;;14.20;5.17;;;;;;;;;;2051377;28;20610;-63
2022/02/18 02:11:26;;;;;;;13.30;5.17;;;;;;;;;;2056171;28;20229;-63
2022/02/18 02:12:26;;;;;;;10.00;4.60;;;;;;;;;;2052724;28;20687;-63
2022/02/18 02:13:28;;;;;;;16.40;5.20;;;;;;;;;;2040853;29;20267;-63
2022/02/18 02:14:28;;;;;;;17.88;5.65;;;;;;;;;;2040496;29;20179;-65
2022/02/18 02:15:29;;;;;;;14.50;4.43;;;;;;;;;;2041825;29;20186;-64
2022/02/18 02:16:29;;;;;;;11.80;4.60;;;;;;;;;;2056454;28;20297;-64
2022/02/18 02:17:29;;;;;;;17.83;5.10;;;;;;;;;;2064762;28;20197;-64
2022/02/18 02:18:30;;;;;;;14.33;5.30;;;;;;;;;;2054987;28;20174;-64
2022/02/18 02:19:30;;;;;;;10.70;4.57;;;;;;;;;;2047931;28;20640;-64
2022/02/18 02:20:31;;;;;;;11.97;4.83;;;;;;;;;;2063583;28;20677;-64
2022/02/18 02:21:32;;;;;;;13.30;4.40;;;;;;;;;;2056481;28;20178;-64
2022/02/18 02:22:33;;;;;;;11.37;4.67;;;;;;;;;;2056070;28;20180;-62
2022/02/18 02:23:33;;;;;;;14.43;5.33;;;;;;;;;;2048039;29;20265;-64
2022/02/18 02:24:34;;;;;;;14.80;5.23;;;;;;;;;;2055786;28;20181;-64
2022/02/18 02:25:35;;;;;;;12.77;5.00;;;;;;;;;;2061568;28;20221;-63
2022/02/18 02:26:41;;;;;;;13.47;4.57;;;;;;;;;;2056607;28;20202;-63
2022/02/18 02:27:41;;;;;;;11.73;4.97;;;;;;;;;;2048734;28;20210;-63
2022/02/18 02:28:42;;;;;;;11.82;4.13;;;;;;;;;;2042418;29;20266;-64
2022/02/18 02:29:46;;;;;;;16.23;5.10;;;;;;;;;;2048860;28;20713;-63
2022/02/18 02:30:46;;;;;;;12.23;4.67;;;;;;;;;;2048908;28;20543;-64
2022/02/18 02:31:47;;;;;;;13.10;4.80;;;;;;;;;;2048703;29;20261;-63
2022/02/18 02:32:48;;;;;;;16.17;4.47;;;;;;;;;;2048397;29;20600;-64
2022/02/18 02:33:49;;;;;;;10.87;4.83;;;;;;;;;;2048561;28;20577;-63
2022/02/18 02:34:49;;;;;;;14.17;5.17;;;;;;;;;;2038690;29;20168;-64
2022/02/18 02:35:49;;;;;;;13.57;5.00;;;;;;;;;;2048345;29;20183;-63
2022/02/18 02:36:50;;;;;;;12.70;5.03;;;;;;;;;;2064198;28;20193;-64
2022/02/18 02:37:51;;;;;;;17.83;5.77;;;;;;;;;;2056684;28;20201;-64
2022/02/18 02:38:57;;;;;;;13.83;5.40;;;;;;;;;;2045028;28;20164;-63
2022/02/18 02:39:58;;;;;;;14.27;4.80;;;;;;;;;;2040857;29;20238;-63
2022/02/18 02:41:04;;;;;;;12.03;4.60;;;;;;;;;;2042527;28;20200;-61
2022/02/18 02:42:07;;;;;;;17.83;4.90;;;;;;;;;;2041078;29;20183;-63
2022/02/18 02:43:09;;;;;;;14.53;4.57;;;;;;;;;;2040793;29;20172;-64
2022/02/18 02:44:09;;;;;;;15.17;4.97;;;;;;;;;;2044987;29;20175;-64
2022/02/18 02:45:10;;;;;;;12.63;4.77;;;;;;;;;;2056609;28;20178;-64
2022/02/18 02:46:10;;;;;;;12.13;4.50;;;;;;;;;;2056544;28;20807;-64
2022/02/18 02:47:10;;;;;;;20.20;4.43;;;;;;;;;;2041402;28;20265;-63
2022/02/18 02:48:11;;;;;;;15.40;5.33;;;;;;;;;;2047354;28;20247;-63
2022/02/18 02:49:23;;;;;;;14.00;5.23;;;;;;;;;;2048752;28;20221;-62
2022/02/18 02:50:25;;;;;;;12.77;4.50;;;;;;;;;;2056096;28;20273;-60
2022/02/18 02:51:31;;;;;;;15.30;6.13;;;;;;;;;;2048575;29;20261;-62
2022/02/18 02:52:32;;;;;;;8.13;4.70;;;;;;;;;;2050102;28;20585;-63
2022/02/18 02:53:40;;;;;;;14.27;4.88;;;;;;;;;;2057432;28;20348;-63
2022/02/18 02:54:41;;;;;;;14.90;5.30;;;;;;;;;;2066408;28;20181;-63
2022/02/18 02:55:45;;;;;;;13.43;5.30;;;;;;;;;;2064335;28;20208;-62
2022/02/18 02:56:47;;;;;;;13.13;5.00;;;;;;;;;;2056102;28;20333;-62
2022/02/18 02:58:00;;;;;;;19.03;4.77;;;;;;;;;;2057668;28;20174;-63
2022/02/18 02:59:00;;;;;;;13.77;5.07;;;;;;;;;;2044569;28;20705;-62
2022/02/18 03:00:14;;;;;;;10.87;4.37;;;;;;;;;;2041895;28;20175;-63
2022/02/18 03:01:15;;;;;;;13.83;4.63;;;;;;;;;;2040789;29;20852;-65
2022/02/18 03:02:20;;;;;;;13.37;5.40;;;;;;;;;;2041449;29;20182;-63
2022/02/18 03:03:20;;;;;;;15.63;5.00;;;;;;;;;;2040819;29;20191;-63
2022/02/18 03:04:29;;;;;;;13.53;5.10;;;;;;;;;;2050536;28;20709;-64
2022/02/18 03:05:31;;;;;;;11.60;5.45;;;;;;;;;;2048888;28;20226;-63
2022/02/18 03:06:35;;;;;;;11.43;4.90;;;;;;;;;;2045716;28;20244;-64
2022/02/18 03:07:36;;;;;;;16.63;5.13;;;;;;;;;;2040565;29;20210;-63
2022/02/18 03:08:48;;;;;;;16.27;5.40;;;;;;;;;;2042031;28;20184;-63
2022/02/18 03:09:59;;;;;;;10.10;4.87;;;;;;;;;;2048965;28;20275;-64
2022/02/18 03:11:15;;;;;;;12.20;5.00;;;;;;;;;;2045004;28;20171;-64
2022/02/18 03:12:25;;;;;;;12.07;4.63;;;;;;;;;;2055186;28;20174;-63
2022/02/18 03:13:30;;;;;;;12.50;4.90;;;;;;;;;;2054183;28;20253;-62
2022/02/18 03:14:31;;;;;;;12.27;4.77;;;;;;;;;;2054784;28;20246;-64
2022/02/18 03:15:37;;;;;;;18.88;5.85;;;;;;;;;;2048535;29;20166;-63
2022/02/18 03:16:45;;;;;;;11.77;5.90;;;;;;;;;;2040844;28;20199;-63
2022/02/18 03:17:45;;;;;;;12.73;5.13;;;;;;;;;;2040416;29;20718;-63
2022/02/18 03:18:55;;;;;;;15.70;5.17;;;;;;;;;;2041026;29;20604;-63
2022/02/18 03:19:55;;;;;;;11.63;5.10;;;;;;;;;;2034753;29;20180;-63
2022/02/18 03:21:07;;;;;;;21.13;5.40;;;;;;;;;;2041765;29;20578;-62
2022/02/18 03:22:08;;;;;;;14.00;5.80;;;;;;;;;;2040479;29;20195;-62
2022/02/18 03:23:08;;;;;;;13.17;5.43;;;;;;;;;;2032752;29;20176;-63
2022/02/18 03:24:09;;;;;;;14.30;5.53;;;;;;;;;;2038256;29;20330;-63
2022/02/18 03:25:09;;;;;;;11.88;5.18;;;;;;;;;;2048499;29;20173;-63
2022/02/18 03:26:09;;;;;;;16.20;6.07;;;;;;;;;;2040453;29;20183;-63
2022/02/18 03:27:10;;;;;;;13.93;5.70;;;;;;;;;;2040276;29;20219;-63
2022/02/18 03:28:14;;;;;;;15.60;5.27;;;;;;;;;;2048878;28;20174;-62
2022/02/18 03:29:14;;;;;;;17.17;6.03;;;;;;;;;;2047145;28;20265;-63
2022/02/18 03:30:24;;;;;;;15.80;6.10;;;;;;;;;;2049560;28;20229;-63
2022/02/18 03:31:24;;;;;;;15.47;6.50;;;;;;;;;;2048626;29;20581;-63
2022/02/18 03:32:25;;;;;;;10.57;4.65;;;;;;;;;;2040404;29;20167;-63
2022/02/18 03:33:25;;;;;;;16.70;6.28;;;;;;;;;;2040508;29;20214;-63
2022/02/18 03:34:26;;;;;;;15.52;6.18;;;;;;;;;;2043121;28;20179;-63
2022/02/18 03:35:26;;;;;;;14.33;5.90;;;;;;;;;;2056879;28;20250;-63
2022/02/18 03:36:28;;;;;;;13.37;5.83;;;;;;;;;;2048218;28;20274;-63
2022/02/18 03:37:28;;;;;;;14.52;5.85;;;;;;;;;;2039435;29;20184;-64
2022/02/18 03:38:33;;;;;;;17.47;5.77;;;;;;;;;;2053066;28;20197;-64
2022/02/18 03:39:33;;;;;;;14.23;6.07;;;;;;;;;;2043809;29;20841;-59
2022/02/18 03:40:35;;;;;;;13.60;5.35;;;;;;;;;;2048063;28;20183;-64
2022/02/18 03:41:36;;;;;;;14.48;6.00;;;;;;;;;;2048072;28;20218;-63
2022/02/18 03:42:36;;;;;;;13.35;5.30;;;;;;;;;;2045598;28;20245;-63
2022/02/18 03:43:37;;;;;;;11.63;5.80;;;;;;;;;;2039213;29;20175;-61
2022/02/18 03:45:00;;;;;;;14.90;5.80;;;;;;;;;;2050536;28;20174;-61
2022/02/18 03:46:00;;;;;;;12.50;5.47;;;;;;;;;;2048893;29;20178;-63
2022/02/18 03:47:04;;;;;;;11.53;5.60;;;;;;;;;;2049421;28;20254;-63
2022/02/18 03:48:05;;;;;;;17.23;5.97;;;;;;;;;;2057414;28;20621;-64
2022/02/18 03:49:05;;;;;;;13.60;5.55;;;;;;;;;;2041888;29;20187;-64
2022/02/18 03:50:06;;;;;;;13.50;6.17;;;;;;;;;;2057342;28;20170;-62
2022/02/18 03:51:06;;;;;;;10.43;5.30;;;;;;;;;;2057192;28;20225;-63
2022/02/18 03:52:06;;;;;;;16.95;5.90;;;;;;;;;;2057637;28;20254;-64
2022/02/18 03:53:07;;;;;;;13.40;5.37;;;;;;;;;;2056948;28;20170;-64
2022/02/18 03:54:08;;;;;;;9.77;5.53;;;;;;;;;;2053803;28;20174;-64
2022/02/18 03:55:11;;;;;;;12.83;5.37;;;;;;;;;;2042067;29;20219;-64
2022/02/18 03:56:19;;;;;;;15.20;6.10;;;;;;;;;;2049027;29;20228;-63
2022/02/18 03:57:21;;;;;;;11.18;6.75;;;;;;;;;;2049328;29;20202;-64
2022/02/18 03:58:23;;;;;;;13.25;6.18;;;;;;;;;;2041642;28;20255;-64
2022/02/18 03:59:23;;;;;;;15.53;6.47;;;;;;;;;;2049538;29;20678;-63
2022/02/18 04:00:25;;;;;;;10.02;5.53;;;;;;;;;;2049904;28;20171;-63
2022/02/18 04:01:25;;;;;;;13.60;6.03;;;;;;;;;;2057179;28;20228;-64
2022/02/18 04:02:27;;;;;;;14.83;5.73;;;;;;;;;;2057585;28;20186;-63
2022/02/18 04:03:28;;;;;;;13.23;5.82;;;;;;;;;;2056335;28;20170;-64
2022/02/18 04:04:49;;;;;;;13.43;6.55;;;;;;;;;;2042557;29;20241;-62
2022/02/18 04:06:01;;;;;;;15.07;7.20;;;;;;;;;;2057671;28;20175;-63
2022/02/18 04:07:11;;;;;;;13.43;6.10;;;;;;;;;;2057001;28;20671;-63
2022/02/18 04:08:18;;;;;;;13.05;6.32;;;;;;;;;;2050576;28;20258;-65
2022/02/18 04:09:19;;;;;;;23.08;7.32;;;;;;;;;;2056964;28;20194;-62
2022/02/18 04:10:26;;;;;;;10.63;6.50;;;;;;;;;;2049670;29;20203;-64
2022/02/18 04:11:26;;;;;;;11.45;6.47;;;;;;;;;;2041820;29;20976;-63
2022/02/18 04:12:27;;;;;;;12.52;6.32;;;;;;;;;;2049602;28;20241;-64
2022/02/18 04:13:33;;;;;;;12.90;6.80;;;;;;;;;;2051566;28;20175;-64
2022/02/18 04:14:33;;;;;;;13.70;6.43;;;;;;;;;;2049221;29;20609;-64
2022/02/18 04:15:37;;;;;;;16.83;6.30;;;;;;;;;;2050094;28;20199;-64
2022/02/18 04:16:38;;;;;;;15.18;7.30;;;;;;;;;;2049483;28;20215;-64
2022/02/18 04:17:45;;;;;;;12.40;6.45;;;;;;;;;;2063619;28;20241;-62
2022/02/18 04:18:59;;;;;;;12.83;6.27;;;;;;;;;;2051338;28;20183;-64
2022/02/18 04:20:04;;;;;;;16.85;6.82;;;;;;;;;;2052006;28;20171;-63
2022/02/18 04:21:25;;;;;;;18.15;7.30;;;;;;;;;;2055027;28;20182;-64
2022/02/18 04:22:48;;;;;;;12.63;6.03;;;;;;;;;;2052471;28;20195;-64
2022/02/18 04:23:54;;;;;;;13.47;6.57;;;;;;;;;;2062214;28;20233;-64
2022/02/18 04:24:55;;;;;;;14.95;6.80;;;;;;;;;;2048743;28;20187;-64
2022/02/18 04:25:55;;;;;;;13.07;6.80;;;;;;;;;;2056818;28;20242;-64
2022/02/18 04:26:55;;;;;;;13.85;6.30;;;;;;;;;;2075058;23;20230;-57
2022/02/18 04:27:57;;;;;;;14.25;8.13;;;;;;;;;;2059473;28;20210;-56
2022/02/18 04:28:57;;;;;;;11.25;5.88;;;;;;;;;;2056691;28;20686;-57
2022/02/18 04:29:57;;;;;;;20.73;6.90;;;;;;;;;;2059362;28;20178;-54
2022/02/18 04:30:57;;;;;;;12.93;6.15;;;;;;;;;;2058030;28;20178;-56
2022/02/18 04:31:58;;;;;;;14.70;7.13;;;;;;;;;;2060921;28;20198;-57
2022/02/18 04:32:58;;;;;;;19.80;7.45;;;;;;;;;;2053546;28;20640;-56
2022/02/18 04:33:58;;;;;;;17.85;7.75;;;;;;;;;;2052709;28;20210;-53
2022/02/18 04:34:59;;;;;;;20.60;7.88;;;;;;;;;;2057045;28;20544;-56
2022/02/18 04:36:01;;;;;;;12.90;5.93;;;;;;;;;;2058337;28;22072;-55
2022/02/18 04:37:02;;;;;;;14.30;7.70;;;;;;;;;;2060824;28;20678;-54
2022/02/18 04:38:02;;;;;;;17.85;7.30;;;;;;;;;;2062492;28;20261;-53
2022/02/18 04:39:02;;;;;;;18.35;7.38;;;;;;;;;;2060064;28;20174;-56
2022/02/18 04:40:03;;;;;;;18.98;7.40;;;;;;;;;;2058062;28;20197;-54
2022/02/18 04:41:03;;;;;;;13.98;7.18;;;;;;;;;;2063395;28;20197;-53
2022/02/18 04:42:03;;;;;;;20.25;7.38;;;;;;;;;;2065470;28;20543;-54
2022/02/18 04:43:04;;;;;;;19.48;7.65;;;;;;;;;;2065882;28;20170;-54
2022/02/18 04:44:05;;;;;;;15.82;6.88;;;;;;;;;;2072307;28;20210;-58
2022/02/18 04:45:06;;;;;;;17.90;7.50;;;;;;;;;;2073840;28;20185;-56
2022/02/18 04:46:06;;;;;;;17.05;8.02;;;;;;;;;;2072981;28;20495;-57
2022/02/18 04:47:06;;;;;;;18.33;7.85;;;;;;;;;;2072771;28;20193;-58
2022/02/18 04:48:07;;;;;;;15.82;6.88;;;;;;;;;;2072469;28;20166;-57
2022/02/18 04:49:07;;;;;;;14.93;7.50;;;;;;;;;;2071824;28;20181;-58
2022/02/18 04:50:07;;;;;;;13.75;7.78;;;;;;;;;;2072040;28;20170;-55
2022/02/18 04:51:08;;;;;;;18.53;8.13;;;;;;;;;;2071036;28;20197;-58
2022/02/18 04:52:08;;;;;;;15.68;7.47;;;;;;;;;;2073277;28;20661;-57
2022/02/18 04:53:08;;;;;;;17.77;7.40;;;;;;;;;;2070496;28;20235;-55
2022/02/18 04:54:08;;;;;;;22.25;7.75;;;;;;;;;;2067133;28;20197;-57
2022/02/18 04:55:09;;;;;;;14.13;7.35;;;;;;;;;;2066005;28;20182;-55
2022/02/18 04:56:09;;;;;;;16.43;7.10;;;;;;;;;;2060944;28;20189;-55
2022/02/18 04:57:10;;;;;;;14.95;7.28;;;;;;;;;;2058766;28;20198;-57
2022/02/18 04:58:10;;;;;;;19.45;8.55;;;;;;;;;;2056833;28;20186;-56
2022/02/18 04:59:12;;;;;;;20.58;7.15;;;;;;;;;;2064985;28;20240;-54
2022/02/18 05:00:12;;;;;;;15.18;7.07;;;;;;;;;;2060625;28;20706;-56
2022/02/18 05:01:15;;;;;;;19.27;8.07;;;;;;;;;;2065278;28;20173;-56
2022/02/18 05:02:16;;;;;;;20.55;8.07;;;;;;;;;;2060495;28;20193;-55
2022/02/18 05:03:17;;;;;;;16.20;7.00;;;;;;;;;;2059839;28;20253;-56
2022/02/18 05:04:17;;;;;;;13.63;7.15;;;;;;;;;;2064154;28;20185;-57
2022/02/18 05:05:17;;;;;;;17.05;8.05;;;;;;;;;;2064630;28;20208;-57
2022/02/18 05:06:18;;;;;;;19.20;7.97;;;;;;;;;;2063404;28;20174;-57
2022/02/18 05:07:18;;;;;;;15.00;7.33;;;;;;;;;;2062256;28;20267;-55
2022/02/18 05:08:19;;;;;;;20.15;8.43;;;;;;;;;;2055685;28;20820;-55
2022/02/18 05:09:21;;;;;;;17.38;7.50;;;;;;;;;;2064262;28;20216;-54
2022/02/18 05:10:22;;;;;;;14.73;7.55;;;;;;;;;;2064080;28;20236;-58
2022/02/18 05:11:22;;;;;;;19.25;7.57;;;;;;;;;;2063626;28;20170;-58
2022/02/18 05:12:22;;;;;;;21.55;7.53;;;;;;;;;;2062281;28;20170;-57
2022/02/18 05:13:23;;;;;;;18.15;8.13;;;;;;;;;;2063518;28;20320;-53
2022/02/18 05:14:23;;;;;;;15.30;6.97;;;;;;;;;;2062618;28;20576;-57
2022/02/18 05:15:24;;;;;;;20.02;7.78;;;;;;;;;;2061995;28;21332;-56
2022/02/18 05:16:24;;;;;;;17.30;7.50;;;;;;;;;;2063798;28;20681;-55
2022/02/18 05:17:24;;;;;;;19.52;7.57;;;;;;;;;;2056276;28;20202;-58
2022/02/18 05:18:24;;;;;;;15.80;7.82;;;;;;;;;;2063639;28;20690;-56
2022/02/18 05:19:24;;;;;;;16.08;7.18;;;;;;;;;;2064085;28;20201;-56
2022/02/18 05:20:25;;;;;;;16.80;6.78;;;;;;;;;;2062452;28;20320;-58
2022/02/18 05:21:25;;;;;;;19.58;7.38;;;;;;;;;;2057890;28;20729;-53
2022/02/18 05:22:25;;;;;;;20.38;7.45;;;;;;;;;;2063446;28;20219;-55
2022/02/18 05:23:26;;;;;;;16.40;7.57;;;;;;;;;;2064827;28;20209;-54
2022/02/18 05:24:26;;;;;;;12.27;6.63;;;;;;;;;;2059730;28;20181;-52
2022/02/18 05:25:26;;;;;;;16.25;6.78;;;;;;;;;;2058878;28;20726;-54
2022/02/18 05:26:28;;;;;;;16.40;7.75;;;;;;;;;;2064467;28;20170;-53
2022/02/18 05:27:28;;;;;;;15.60;6.90;;;;;;;;;;2057461;28;20212;-56
2022/02/18 05:28:28;;;;;;;17.23;7.45;;;;;;;;;;2059125;28;20647;-53
2022/02/18 05:29:29;;;;;;;24.85;7.22;;;;;;;;;;2062886;28;20312;-54
2022/02/18 05:30:29;;;;;;;14.05;6.55;;;;;;;;;;2065078;28;20266;-56
2022/02/18 05:31:29;;;;;;;13.50;6.78;;;;;;;;;;2058844;28;20188;-54
2022/02/18 05:32:29;;;;;;;20.00;6.70;;;;;;;;;;2064414;28;20182;-55
2022/02/18 05:33:30;;;;;;;17.40;7.20;;;;;;;;;;2064557;28;20197;-57
2022/02/18 05:34:31;;;;;;;19.15;7.18;;;;;;;;;;2049252;28;20179;-53
2022/02/18 05:35:31;;;;;;;17.77;7.30;;;;;;;;;;2064981;28;20162;-56
2022/02/18 05:36:32;;;;;;;19.30;7.30;;;;;;;;;;2068237;28;20191;-57
2022/02/18 05:37:32;;;;;;;20.60;7.97;;;;;;;;;;2068914;28;20169;-56
2022/02/18 05:38:32;;;;;;;11.68;7.47;;;;;;;;;;2068673;28;20174;-57
2022/02/18 05:39:33;;;;;;;15.05;7.05;;;;;;;;;;2066012;28;20193;-56
2022/02/18 05:40:33;;;;;;;17.30;7.10;;;;;;;;;;2065920;28;20549;-59
2022/02/18 05:41:35;;;;;;;22.60;8.10;;;;;;;;;;2064895;28;20182;-57
2022/02/18 05:42:35;;;;;;;15.02;6.95;;;;;;;;;;2067460;28;20193;-56
2022/02/18 05:43:35;;;;;;;25.30;7.32;;;;;;;;;;2065769;28;20181;-58
2022/02/18 05:44:35;;;;;;;15.77;7.53;;;;;;;;;;2063862;28;20176;-57
2022/02/18 05:45:36;;;;;;;22.02;7.50;;;;;;;;;;2063657;28;20757;-59
2022/02/18 05:46:36;;;;;;;18.42;7.50;;;;;;;;;;2063335;28;20199;-59
2022/02/18 05:47:37;;;;;;;13.85;7.55;;;;;;;;;;2061203;28;20208;-53
2022/02/18 05:48:37;;;;;;;18.90;8.10;;;;;;;;;;2061720;28;20189;-57
2022/02/18 05:49:37;;;;;;;21.52;8.40;;;;;;;;;;2055175;28;20225;-59
2022/02/18 05:50:37;;;;;;;25.33;8.15;;;;;;;;;;2053337;28;20178;-54
2022/02/18 05:51:37;;;;;;;15.32;8.35;;;;;;;;;;2062793;28;20189;-58
2022/02/18 05:52:38;;;;;;;24.35;8.38;;;;;;;;;;2061982;28;20176;-60
2022/02/18 05:53:39;;;;;;;20.30;9.30;;;;;;;;;;2061787;28;20185;-59
2022/02/18 05:54:39;;;;;;;18.13;8.68;;;;;;;;;;2063548;28;20182;-58
2022/02/18 05:55:39;;;;;;;21.23;9.95;;;;;;;;;;2060780;28;20179;-57
2022/02/18 05:56:40;;;;;;;18.60;9.05;;;;;;;;;;2061500;28;20647;-58
2022/02/18 05:57:40;;;;;;;21.55;9.70;;;;;;;;;;2063842;28;20180;-56
2022/02/18 05:58:42;;;;;;;18.08;10.30;;;;;;;;;;2064541;28;20227;-55
2022/02/18 05:59:42;;;;;;;24.98;9.35;;;;;;;;;;2063459;28;20257;-58
2022/02/18 06:00:42;;;;;;;18.42;9.32;;;;;;;;;;2053619;28;20201;-56
2022/02/18 06:01:44;;;;;;;18.98;10.43;;;;;;;;;;2064962;28;20188;-58
2022/02/18 06:02:44;;;;;;;21.20;9.50;;;;;;;;;;2062307;28;20174;-55
2022/02/18 06:03:45;;;;;;;20.63;10.00;;;;;;;;;;2064188;28;20253;-57
2022/02/18 06:04:45;;;;;;;23.33;9.95;;;;;;;;;;2057969;28;20285;-57